Consulta los datos en tiempo real de la estación meteorológica de Parc Astronòmic del Montsec
| Hora UTC | 16:45 |
|---|---|
| Temperatura | 14.6 ºC |
| Humedad | 77.0 % |
| Presión | 1011.1 hPa |
| Pluja | 0.0 mm |
| Velocidad viento | 4.8 km/h |
| Dirección viento |
| Temperatura (ºC) | Humedad (%) | Presión (hPa) | Velocidad viento (km/h) | Precipitación (mm) | ||||||||||||
|---|---|---|---|---|---|---|---|---|---|---|---|---|---|---|---|---|
| Hora UTC | Aire | Humedad | Presión | Vel. | Dir. | Vel. Max | Dir. | Intent. máx 5 min. | ||||||||
| 00:15 | 11.4 | 87.0 | 1014.6 | 9.7 | 14.5 | 0.0 | ||||||||||
| 00:30 | 11.3 | 87.0 | 1014.5 | 9.7 | N | 14.5 | 0.0 | |||||||||
| 00:45 | 11.0 | 88.0 | 1014.5 | 4.8 | 14.5 | 0.0 | ||||||||||
| 01:00 | 10.9 | 88.0 | 1014.6 | 8.0 | N | 14.5 | 0.0 | |||||||||
| 01:15 | 11.0 | 92.0 | 1014.7 | 8.0 | 14.5 | 0.0 | ||||||||||
| 01:30 | 11.1 | 89.0 | 1014.7 | 11.3 | NNE | 14.5 | 0.0 | |||||||||
| 01:45 | 11.2 | 88.0 | 1014.6 | 11.3 | 14.5 | 0.0 | ||||||||||
| 02:00 | 11.1 | 87.0 | 1014.6 | 9.7 | N | 14.5 | 0.0 | |||||||||
| 02:15 | 11.0 | 87.0 | 1014.6 | 14.5 | 14.5 | E | 0.0 | |||||||||
| 02:30 | 10.9 | 86.0 | 1014.6 | 8.0 | 14.5 | E | 0.0 | |||||||||
| 02:45 | 11.0 | 85.0 | 1014.6 | 16.1 | 16.1 | ESE | 0.0 | |||||||||
| 03:00 | 10.8 | 84.0 | 1014.4 | 8.0 | N | 16.1 | ESE | 0.0 | ||||||||
| 03:15 | 10.9 | 84.0 | 1014.2 | 14.5 | 16.1 | ESE | 0.0 | |||||||||
| 03:30 | 10.8 | 84.0 | 1014.2 | 14.5 | NNE | 16.1 | ESE | 0.0 | ||||||||
| 03:45 | 10.8 | 84.0 | 1014.3 | 12.9 | 16.1 | ESE | 0.0 | |||||||||
| 04:00 | 10.6 | 84.0 | 1013.9 | 8.0 | N | 16.1 | ESE | 0.0 | ||||||||
| 04:15 | 10.9 | 82.0 | 1013.9 | 12.9 | 16.1 | ESE | 0.0 | |||||||||
| 04:30 | 11.3 | 80.0 | 1013.9 | 9.7 | N | 16.1 | ESE | 0.0 | ||||||||
| 04:45 | 11.6 | 80.0 | 1013.9 | 8.0 | 16.1 | ESE | 0.0 | |||||||||
| 05:00 | 10.9 | 81.0 | 1014.0 | 16.1 | ESE | 0.0 | ||||||||||
| 05:15 | 10.2 | 84.0 | 1013.8 | 1.6 | 16.1 | ESE | 0.0 | |||||||||
| 05:30 | 10.4 | 85.0 | 1013.5 | NNE | 16.1 | ESE | 0.0 | |||||||||
| 05:45 | 10.2 | 86.0 | 1013.3 | 16.1 | ESE | 0.0 | ||||||||||
| 06:00 | 10.0 | 86.0 | 1013.2 | 1.6 | N | 16.1 | ESE | 0.0 | ||||||||
| 06:15 | 9.8 | 87.0 | 1013.2 | 16.1 | ESE | 0.0 | ||||||||||
| 06:30 | 9.7 | 87.0 | 1013.1 | NNE | 16.1 | ESE | 0.0 | |||||||||
| 06:45 | 9.8 | 87.0 | 1013.1 | 16.1 | ESE | 0.0 | ||||||||||
| 07:00 | 9.6 | 87.0 | 1013.3 | 3.2 | N | 16.1 | ESE | 0.0 | ||||||||
| 07:15 | 9.5 | 88.0 | 1013.2 | 16.1 | ESE | 0.0 | ||||||||||
| 07:30 | 9.8 | 88.0 | 1013.2 | NNE | 16.1 | ESE | 0.0 | |||||||||
| 07:45 | 9.9 | 88.0 | 1013.3 | 16.1 | ESE | 0.0 | ||||||||||
| 08:00 | 10.0 | 88.0 | 1013.1 | 1.6 | N | 16.1 | ESE | 0.0 | ||||||||
| 08:15 | 10.1 | 88.0 | 1013.0 | 1.6 | 16.1 | ESE | 0.0 | |||||||||
| 08:30 | 10.3 | 89.0 | 1012.8 | 1.6 | N | 16.1 | ESE | 0.0 | ||||||||
| 08:45 | 10.3 | 88.0 | 1012.9 | 16.1 | ESE | 0.0 | ||||||||||
| 09:00 | 10.8 | 88.0 | 1013.0 | NNE | 16.1 | ESE | 0.0 | |||||||||
| 09:15 | 11.2 | 86.0 | 1013.3 | 16.1 | ESE | 0.0 | ||||||||||
| 09:30 | 11.9 | 84.0 | 1013.3 | 6.4 | N | 16.1 | ESE | 0.0 | ||||||||
| 09:45 | 12.4 | 82.0 | 1013.3 | 3.2 | 16.1 | ESE | 0.0 | |||||||||
| 10:00 | 13.4 | 81.0 | 1013.2 | 3.2 | N | 16.1 | ESE | 0.0 | ||||||||
| 10:15 | 14.3 | 77.0 | 1012.8 | 8.0 | 16.1 | ESE | 0.0 | |||||||||
| 10:30 | 14.6 | 75.0 | 1012.8 | 8.0 | N | 16.1 | ESE | 0.0 | ||||||||
| 10:45 | 14.4 | 74.0 | 1013.0 | 12.9 | 16.1 | ESE | 0.0 | |||||||||
| 11:00 | 14.4 | 73.0 | 1012.9 | 11.3 | NNE | 16.1 | ESE | 0.0 | ||||||||
| 11:15 | 14.2 | 74.0 | 1012.8 | 8.0 | 16.1 | ESE | 0.0 | |||||||||
| 11:30 | 14.5 | 73.0 | 1012.8 | 8.0 | 16.1 | ESE | 0.0 | |||||||||
| 11:45 | 14.6 | 73.0 | 1013.1 | 8.0 | 16.1 | ESE | 0.0 | |||||||||
| 12:00 | 14.3 | 73.0 | 1013.2 | 8.0 | N | 16.1 | ESE | 0.0 | ||||||||
| 12:15 | 14.4 | 73.0 | 1013.2 | 11.3 | 16.1 | ESE | 0.0 | |||||||||
| 12:30 | 14.8 | 72.0 | 1013.0 | 6.4 | N | 16.1 | ESE | 0.0 | ||||||||
| 12:45 | 14.8 | 73.0 | 1012.8 | 8.0 | 16.1 | ESE | 0.0 | |||||||||
| 13:00 | 14.8 | 72.0 | 1012.7 | 4.8 | N | 16.1 | ESE | 0.0 | ||||||||
| 13:15 | 14.8 | 73.0 | 1012.8 | 4.8 | 16.1 | ESE | 0.0 | |||||||||
| 13:30 | 14.3 | 73.0 | 1012.7 | 12.9 | 16.1 | ESE | 0.0 | |||||||||
| 13:45 | 14.5 | 74.0 | 1012.7 | 4.8 | 16.1 | ESE | 0.0 | |||||||||
| 14:00 | 14.4 | 74.0 | 1012.6 | 4.8 | N | 16.1 | ESE | 0.0 | ||||||||
| 14:15 | 14.5 | 75.0 | 1012.2 | 11.3 | 16.1 | ESE | 0.0 | |||||||||
| 14:30 | 14.7 | 75.0 | 1012.1 | 6.4 | 16.1 | ESE | 0.0 | |||||||||
| 14:45 | 14.7 | 76.0 | 1012.0 | 8.0 | 16.1 | ESE | 0.0 | |||||||||
| 15:00 | 14.3 | 76.0 | 1012.1 | 3.2 | N | 16.1 | ESE | 0.0 | ||||||||
| 15:15 | 14.1 | 77.0 | 1012.2 | 11.3 | 16.1 | ESE | 0.0 | |||||||||
| 15:30 | 14.2 | 77.0 | 1011.8 | 14.5 | 16.1 | ESE | 0.0 | |||||||||
| 15:45 | 14.3 | 77.0 | 1011.3 | 9.7 | N | 16.1 | ESE | 0.0 | ||||||||
| 16:00 | 14.3 | 77.0 | 1011.1 | 8.0 | N | 16.1 | ESE | 0.0 | ||||||||
| 16:15 | 14.4 | 77.0 | 1010.7 | 16.1 | ESE | 0.0 | ||||||||||
| 16:30 | 14.6 | 77.0 | 1010.7 | 3.2 | 16.1 | ESE | 0.0 | |||||||||
| 16:45 | 14.6 | 77.0 | 1011.1 | 4.8 | 16.1 | ESE | 0.0 | |||||||||
| Máxima | 14.8 | 92.0 | 1014.7 | 16.1 | 16.1 | ESE | 0.0 | |||||||||
| Mínima | 9.5 | 72.0 | 1010.7 | |||||||||||||
| Total | 0.0 | |||||||||||||||